Time,TemperatureF,DewpointF,PressureIn,WindDirection,WindDirectionDegrees,WindSpeedMPH,WindSpeedGustMPH,Humidity,HourlyPrecipIn,Conditions,Clouds,dailyrainin,SoftwareType,DateUTC
2013-04-08 00:00:00,68.6,63.2,30.15,East,90,0.8,1.6,84,0.00,,,0.00,JAVA,2013-04-08 04:00:00,
2013-04-08 00:01:00,68.6,63.2,30.16,East,90,0.8,1.4,84,0.00,,,0.00,JAVA,2013-04-08 04:01:00,
2013-04-08 00:02:00,68.6,63.2,30.16,East,90,0.6,1.4,84,0.00,,,0.00,JAVA,2013-04-08 04:02:00,
2013-04-08 00:08:00,68.2,63.2,30.16,SE,135,0.4,1.2,84,0.00,,,0.00,JAVA,2013-04-08 04:08:00,
2013-04-08 00:09:00,68.1,63.2,30.16,SE,135,0.4,1.2,84,0.00,,,0.00,JAVA,2013-04-08 04:09:00,
2013-04-08 00:14:00,67.8,63.2,30.16,ESE,112,0.2,0.6,84,0.00,,,0.00,JAVA,2013-04-08 04:14:00,
2013-04-08 00:20:00,67.6,63.2,30.15,ESE,112,0.3,0.5,84,0.00,,,0.00,JAVA,2013-04-08 04:20:00,
2013-04-08 00:26:00,67.6,63.2,30.15,SE,135,0.6,1.3,84,0.00,,,0.00,JAVA,2013-04-08 04:26:00,
2013-04-08 00:31:00,67.6,63.2,30.15,ESE,112,0.8,1.9,84,0.00,,,0.00,JAVA,2013-04-08 04:31:00,
2013-04-08 00:37:00,67.7,63.2,30.16,SE,135,1.1,1.9,85,0.00,,,0.00,JAVA,2013-04-08 04:37:00,
2013-04-08 00:42:00,67.8,63.2,30.15,SE,135,1.3,1.9,85,0.00,,,0.00,JAVA,2013-04-08 04:42:00,
2013-04-08 00:48:00,68.0,63.3,30.15,ESE,112,1.2,1.9,85,0.00,,,0.00,JAVA,2013-04-08 04:48:00,
2013-04-08 00:53:00,68.2,63.3,30.16,East,90,1.2,2.0,85,0.00,,,0.00,JAVA,2013-04-08 04:53:00,
2013-04-08 00:59:00,68.6,63.4,30.15,SE,135,1.4,2.0,85,0.00,,,0.00,JAVA,2013-04-08 04:59:00,
2013-04-08 01:04:00,68.8,63.4,30.15,East,90,1.5,2.2,86,0.00,,,0.00,JAVA,2013-04-08 05:04:00,
2013-04-08 01:12:00,68.7,63.5,30.15,ESE,112,1.4,2.1,86,0.00,,,0.00,JAVA,2013-04-08 05:12:00,
2013-04-08 01:17:00,68.7,63.5,30.14,East,90,1.6,2.2,86,0.00,,,0.00,JAVA,2013-04-08 05:17:00,
2013-04-08 01:23:00,68.8,63.6,30.14,East,90,1.6,2.4,86,0.00,,,0.00,JAVA,2013-04-08 05:23:00,
2013-04-08 01:30:00,68.6,63.6,30.15,SE,135,1.4,2.4,86,0.00,,,0.00,JAVA,2013-04-08 05:30:00,
2013-04-08 01:35:00,68.4,63.7,30.14,ESE,112,0.9,1.9,86,0.00,,,0.00,JAVA,2013-04-08 05:35:00,
2013-04-08 01:41:00,68.3,63.7,30.14,SSE,157,0.6,1.6,86,0.00,,,0.00,JAVA,2013-04-08 05:41:00,
2013-04-08 01:47:00,68.1,63.7,30.14,SE,135,0.2,1.1,86,0.00,,,0.00,JAVA,2013-04-08 05:47:00,
2013-04-08 01:53:00,67.7,63.7,30.14,SE,135,0.0,0.4,86,0.00,,,0.00,JAVA,2013-04-08 05:53:00,
2013-04-08 01:58:00,67.2,63.7,30.14,South,180,0.1,0.2,86,0.00,,,0.00,JAVA,2013-04-08 05:58:00,
2013-04-08 02:07:00,66.8,63.7,30.14,East,90,0.1,0.4,86,0.00,,,0.00,JAVA,2013-04-08 06:07:00,
2013-04-08 02:15:00,66.4,63.7,30.13,SE,135,0.1,0.4,86,0.00,,,0.00,JAVA,2013-04-08 06:15:00,
2013-04-08 02:20:00,66.1,63.6,30.13,East,90,0.1,0.4,86,0.00,,,0.00,JAVA,2013-04-08 06:20:00,
2013-04-08 02:26:00,65.6,63.6,30.12,East,90,0.0,0.1,86,0.00,,,0.00,JAVA,2013-04-08 06:26:00,
2013-04-08 02:31:00,65.2,63.5,30.13,East,90,0.0,0.0,86,0.00,,,0.00,JAVA,2013-04-08 06:31:00,
2013-04-08 02:37:00,64.9,63.3,30.13,SE,135,0.0,0.1,85,0.00,,,0.00,JAVA,2013-04-08 06:37:00,
2013-04-08 02:44:00,64.5,63.1,30.13,East,90,0.0,0.1,85,0.00,,,0.00,JAVA,2013-04-08 06:44:00,
2013-04-08 02:50:00,64.5,62.9,30.12,East,90,0.1,0.5,85,0.00,,,0.00,JAVA,2013-04-08 06:50:00,
2013-04-08 02:55:00,64.5,62.7,30.12,East,90,0.1,0.5,85,0.00,,,0.00,JAVA,2013-04-08 06:55:00,
2013-04-08 03:02:00,64.6,62.4,30.12,East,90,0.0,0.3,85,0.00,,,0.00,JAVA,2013-04-08 07:02:00,
2013-04-08 03:08:00,64.6,62.2,30.12,East,90,0.0,0.3,85,0.00,,,0.00,JAVA,2013-04-08 07:08:00,
2013-04-08 03:13:00,64.5,62.0,30.12,ESE,112,0.1,0.2,86,0.00,,,0.00,JAVA,2013-04-08 07:13:00,
2013-04-08 03:20:00,64.3,61.8,30.12,NE,45,0.0,0.2,86,0.00,,,0.00,JAVA,2013-04-08 07:20:00,
2013-04-08 03:25:00,64.2,61.5,30.11,SE,135,0.0,0.2,86,0.00,,,0.00,JAVA,2013-04-08 07:25:00,
2013-04-08 03:31:00,64.0,61.3,30.11,SE,135,0.0,0.1,86,0.00,,,0.00,JAVA,2013-04-08 07:31:00,
2013-04-08 03:36:00,64.0,61.1,30.11,SE,135,0.0,0.0,86,0.00,,,0.00,JAVA,2013-04-08 07:36:00,
2013-04-08 03:42:00,63.6,60.9,30.11,SE,135,0.0,0.0,86,0.00,,,0.00,JAVA,2013-04-08 07:42:00,
2013-04-08 03:47:00,63.3,60.7,30.11,SE,135,0.0,0.0,87,0.00,,,0.00,JAVA,2013-04-08 07:47:00,
2013-04-08 03:53:00,62.9,60.5,30.11,NE,45,0.0,0.0,87,0.00,,,0.00,JAVA,2013-04-08 07:53:00,
2013-04-08 03:58:00,62.8,60.3,30.10,NE,45,0.0,0.0,87,0.00,,,0.00,JAVA,2013-04-08 07:58:00,
2013-04-08 04:04:00,62.8,60.1,30.10,NE,45,0.0,0.0,87,0.00,,,0.00,JAVA,2013-04-08 08:04:00,
2013-04-08 04:09:00,62.8,60.0,30.11,NE,45,0.0,0.0,87,0.00,,,0.00,JAVA,2013-04-08 08:09:00,
2013-04-08 04:15:00,62.7,59.9,30.11,NE,45,0.0,0.0,88,0.00,,,0.00,JAVA,2013-04-08 08:15:00,
2013-04-08 04:20:00,62.4,59.8,30.11,NE,45,0.0,0.0,88,0.00,,,0.00,JAVA,2013-04-08 08:20:00,
2013-04-08 04:27:00,62.0,59.6,30.11,NE,45,0.0,0.0,88,0.00,,,0.00,JAVA,2013-04-08 08:27:00,
2013-04-08 04:32:00,61.8,59.5,30.11,NE,45,0.0,0.0,88,0.00,,,0.00,JAVA,2013-04-08 08:32:00,
2013-04-08 04:38:00,61.6,59.4,30.10,NE,45,0.0,0.0,88,0.00,,,0.00,JAVA,2013-04-08 08:38:00,
2013-04-08 04:45:00,61.4,59.3,30.11,NE,45,0.0,0.0,89,0.00,,,0.00,JAVA,2013-04-08 08:45:00,
2013-04-08 04:50:00,61.5,59.2,30.10,NE,45,0.0,0.0,89,0.00,,,0.00,JAVA,2013-04-08 08:50:00,
2013-04-08 04:56:00,61.5,59.1,30.11,NE,45,0.0,0.0,89,0.00,,,0.00,JAVA,2013-04-08 08:56:00,
2013-04-08 05:01:00,61.3,59.0,30.11,NE,45,0.0,0.0,89,0.00,,,0.00,JAVA,2013-04-08 09:01:00,
2013-04-08 05:07:00,61.1,58.9,30.10,NE,45,0.0,0.0,89,0.00,,,0.00,JAVA,2013-04-08 09:07:00,
2013-04-08 05:12:00,61.1,58.8,30.10,SW,225,0.0,0.0,89,0.00,,,0.00,JAVA,2013-04-08 09:12:00,
2013-04-08 05:18:00,61.5,58.7,30.11,SW,225,0.0,0.0,89,0.00,,,0.00,JAVA,2013-04-08 09:18:00,
2013-04-08 05:23:00,61.5,58.7,30.11,SW,225,0.0,0.0,90,0.00,,,0.00,JAVA,2013-04-08 09:23:00,
2013-04-08 05:30:00,61.5,58.6,30.11,SW,225,0.0,0.0,90,0.00,,,0.00,JAVA,2013-04-08 09:30:00,
2013-04-08 05:35:00,61.4,58.5,30.10,WNW,292,0.0,0.0,90,0.00,,,0.00,JAVA,2013-04-08 09:35:00,
2013-04-08 05:41:00,61.6,58.5,30.11,North,0,0.1,0.3,90,0.00,,,0.00,JAVA,2013-04-08 09:41:00,
2013-04-08 05:46:00,62.0,58.5,30.11,North,0,0.0,0.3,90,0.00,,,0.00,JAVA,2013-04-08 09:46:00,
2013-04-08 05:52:00,62.2,58.5,30.11,North,0,0.0,0.1,91,0.00,,,0.00,JAVA,2013-04-08 09:52:00,
2013-04-08 05:57:00,62.0,58.5,30.11,North,0,0.0,0.0,91,0.00,,,0.00,JAVA,2013-04-08 09:57:00,
2013-04-08 06:03:00,61.9,58.5,30.11,NNW,337,0.0,0.0,91,0.00,,,0.00,JAVA,2013-04-08 10:03:00,
2013-04-08 06:08:00,62.0,58.6,30.11,NW,315,0.0,0.0,91,0.00,,,0.00,JAVA,2013-04-08 10:08:00,
2013-04-08 06:14:00,62.0,58.6,30.12,East,90,0.0,0.0,91,0.00,,,0.00,JAVA,2013-04-08 10:14:00,
2013-04-08 06:19:00,61.9,58.6,30.11,NW,315,0.0,0.0,91,0.00,,,0.00,JAVA,2013-04-08 10:19:00,
2013-04-08 06:25:00,61.9,58.7,30.12,West,270,0.0,0.0,91,0.00,,,0.00,JAVA,2013-04-08 10:25:00,
2013-04-08 06:30:00,61.9,58.7,30.13,NE,45,0.0,0.0,92,0.00,,,0.00,JAVA,2013-04-08 10:30:00,
2013-04-08 06:36:00,61.6,58.8,30.12,NE,45,0.0,0.0,92,0.00,,,0.00,JAVA,2013-04-08 10:36:00,
2013-04-08 06:41:00,61.5,58.9,30.12,NE,45,0.0,0.0,92,0.00,,,0.00,JAVA,2013-04-08 10:41:00,
2013-04-08 06:47:00,61.3,58.9,30.13,East,90,0.0,0.0,92,0.00,,,0.00,JAVA,2013-04-08 10:47:00,
2013-04-08 06:52:00,61.1,58.9,30.13,North,0,0.0,0.0,92,0.00,,,0.00,JAVA,2013-04-08 10:52:00,
2013-04-08 06:58:00,61.1,59.0,30.13,North,0,0.0,0.0,92,0.00,,,0.00,JAVA,2013-04-08 10:58:00,
2013-04-08 07:03:00,61.0,59.0,30.14,NW,315,0.0,0.0,92,0.00,,,0.00,JAVA,2013-04-08 11:03:00,
2013-04-08 07:09:00,61.3,59.1,30.14,South,180,0.0,0.0,93,0.00,,,0.00,JAVA,2013-04-08 11:09:00,
2013-04-08 07:14:00,61.3,59.1,30.14,NE,45,0.0,0.0,93,0.00,,,0.00,JAVA,2013-04-08 11:14:00,
2013-04-08 07:20:00,61.3,59.1,30.14,NE,45,0.0,0.0,93,0.00,,,0.00,JAVA,2013-04-08 11:20:00,
2013-04-08 07:25:00,61.5,59.2,30.14,NE,45,0.0,0.0,93,0.00,,,0.00,JAVA,2013-04-08 11:25:00,
2013-04-08 07:32:00,61.7,59.2,30.15,NE,45,0.0,0.0,93,0.00,,,0.00,JAVA,2013-04-08 11:32:00,
2013-04-08 07:39:00,61.8,59.3,30.15,East,90,0.0,0.0,93,0.00,,,0.00,JAVA,2013-04-08 11:39:00,
2013-04-08 07:44:00,62.0,59.3,30.16,NW,315,0.0,0.0,93,0.00,,,0.00,JAVA,2013-04-08 11:44:00,
2013-04-08 07:50:00,62.3,59.3,30.16,NW,315,0.1,0.2,93,0.00,,,0.00,JAVA,2013-04-08 11:50:00,
2013-04-08 07:55:00,62.7,59.4,30.16,NW,315,0.2,0.6,94,0.00,,,0.00,JAVA,2013-04-08 11:55:00,
2013-04-08 08:01:00,63.1,59.5,30.16,NNE,22,0.1,0.6,94,0.00,,,0.00,JAVA,2013-04-08 12:01:00,
2013-04-08 08:06:00,64.0,59.6,30.16,SW,225,0.1,0.5,94,0.00,,,0.00,JAVA,2013-04-08 12:06:00,
2013-04-08 08:12:00,64.9,59.7,30.16,NE,45,0.1,0.2,94,0.00,,,0.00,JAVA,2013-04-08 12:12:00,
2013-04-08 08:17:00,65.6,59.9,30.17,NE,45,0.4,0.8,94,0.00,,,0.00,JAVA,2013-04-08 12:17:00,
2013-04-08 08:25:00,66.4,60.3,30.17,NE,45,0.6,1.1,94,0.00,,,0.00,JAVA,2013-04-08 12:25:00,
2013-04-08 08:32:00,67.0,60.6,30.17,NE,45,0.3,1.1,95,0.00,,,0.00,JAVA,2013-04-08 12:32:00,
2013-04-08 08:37:00,67.2,61.0,30.17,NW,315,0.6,1.6,95,0.00,,,0.00,JAVA,2013-04-08 12:37:00,
2013-04-08 08:43:00,67.7,61.3,30.17,North,0,1.0,1.7,95,0.00,,,0.00,JAVA,2013-04-08 12:43:00,
2013-04-08 08:49:00,68.3,61.8,30.17,NW,315,0.8,1.1,95,0.00,,,0.00,JAVA,2013-04-08 12:49:00,
2013-04-08 08:55:00,68.4,62.2,30.17,SW,225,1.0,1.8,95,0.00,,,0.00,JAVA,2013-04-08 12:55:00,
2013-04-08 09:00:00,69.0,62.6,30.18,North,0,1.1,1.8,96,0.00,,,0.00,JAVA,2013-04-08 13:00:00,
2013-04-08 09:06:00,69.5,63.0,30.17,West,270,1.0,1.5,96,0.00,,,0.00,JAVA,2013-04-08 13:06:00,
2013-04-08 09:11:00,70.0,63.5,30.18,South,180,1.1,1.5,95,0.00,,,0.00,JAVA,2013-04-08 13:11:00,
2013-04-08 09:17:00,70.7,64.0,30.17,SSW,202,1.1,1.5,95,0.00,,,0.00,JAVA,2013-04-08 13:17:00,
2013-04-08 09:22:00,71.4,64.5,30.18,NE,45,1.0,1.9,95,0.00,,,0.00,JAVA,2013-04-08 13:22:00,
2013-04-08 09:28:00,72.3,65.0,30.18,NNE,22,1.0,1.9,95,0.00,,,0.00,JAVA,2013-04-08 13:28:00,
2013-04-08 09:35:00,72.9,65.6,30.17,NW,315,1.3,2.5,94,0.00,,,0.00,JAVA,2013-04-08 13:35:00,
2013-04-08 09:40:00,72.8,66.2,30.18,NE,45,1.7,2.9,93,0.00,,,0.00,JAVA,2013-04-08 13:40:00,
2013-04-08 09:46:00,73.5,66.7,30.18,NE,45,1.3,2.9,92,0.00,,,0.00,JAVA,2013-04-08 13:46:00,
2013-04-08 09:51:00,74.2,67.2,30.18,NE,45,1.1,2.4,91,0.00,,,0.00,JAVA,2013-04-08 13:51:00,
2013-04-08 09:57:00,74.5,67.7,30.18,North,0,1.8,3.0,90,0.00,,,0.00,JAVA,2013-04-08 13:57:00,
2013-04-08 10:02:00,74.4,68.1,30.18,NE,45,1.9,3.0,88,0.00,,,0.00,JAVA,2013-04-08 14:02:00,
2013-04-08 10:08:00,74.3,68.4,30.18,ENE,67,1.5,2.8,87,0.00,,,0.00,JAVA,2013-04-08 14:08:00,
2013-04-08 10:16:00,75.0,68.8,30.17,NNE,22,1.4,2.2,85,0.00,,,0.00,JAVA,2013-04-08 14:16:00,
2013-04-08 10:21:00,75.0,69.1,30.18,WNW,292,1.8,3.1,84,0.00,,,0.00,JAVA,2013-04-08 14:21:00,
2013-04-08 10:27:00,74.5,69.2,30.18,East,90,2.1,3.4,82,0.00,,,0.00,JAVA,2013-04-08 14:27:00,
2013-04-08 10:32:00,74.9,69.4,30.18,WNW,292,1.9,3.4,81,0.00,,,0.00,JAVA,2013-04-08 14:32:00,
2013-04-08 10:38:00,75.0,69.5,30.18,SW,225,2.0,3.6,79,0.00,,,0.00,JAVA,2013-04-08 14:38:00,
2013-04-08 10:43:00,75.2,69.6,30.19,North,0,2.0,3.6,78,0.00,,,0.00,JAVA,2013-04-08 14:43:00,
2013-04-08 10:49:00,75.0,69.6,30.19,NNE,22,1.9,3.2,77,0.00,,,0.00,JAVA,2013-04-08 14:49:00,
2013-04-08 10:54:00,75.5,69.5,30.19,NNE,22,2.1,3.4,75,0.00,,,0.00,JAVA,2013-04-08 14:54:00,
2013-04-08 11:00:00,75.9,69.5,30.19,East,90,1.9,3.4,74,0.00,,,0.00,JAVA,2013-04-08 15:00:00,
2013-04-08 11:05:00,76.0,69.4,30.19,NNE,22,2.1,4.3,73,0.00,,,0.00,JAVA,2013-04-08 15:05:00,
2013-04-08 11:12:00,75.3,69.2,30.19,NNE,22,2.4,4.3,72,0.00,,,0.00,JAVA,2013-04-08 15:12:00,
2013-04-08 11:18:00,75.5,69.0,30.19,NNE,22,2.1,3.0,71,0.00,,,0.00,JAVA,2013-04-08 15:18:00,
2013-04-08 11:23:00,75.2,68.8,30.19,NNW,337,2.6,4.2,71,0.00,,,0.00,JAVA,2013-04-08 15:23:00,
2013-04-08 11:29:00,75.4,68.5,30.19,NE,45,2.3,4.2,70,0.00,,,0.00,JAVA,2013-04-08 15:29:00,
2013-04-08 11:35:00,76.2,68.2,30.19,North,0,1.8,3.0,70,0.00,,,0.00,JAVA,2013-04-08 15:35:00,
2013-04-08 11:42:00,75.4,67.8,30.19,North,0,2.5,3.6,70,0.00,,,0.00,JAVA,2013-04-08 15:42:00,
2013-04-08 11:47:00,74.5,67.5,30.19,ESE,112,2.9,4.7,70,0.00,,,0.00,JAVA,2013-04-08 15:47:00,
2013-04-08 11:53:00,75.2,67.2,30.19,East,90,2.4,4.7,70,0.00,,,0.00,JAVA,2013-04-08 15:53:00,
2013-04-08 11:58:00,75.2,66.9,30.19,NNE,22,2.2,3.1,70,0.00,,,0.00,JAVA,2013-04-08 15:58:00,
2013-04-08 12:04:00,74.8,66.6,30.19,NNE,22,3.1,4.6,70,0.00,,,0.00,JAVA,2013-04-08 16:04:00,
2013-04-08 12:09:00,74.5,66.4,30.20,North,0,3.4,4.6,70,0.00,,,0.00,JAVA,2013-04-08 16:09:00,
2013-04-08 12:16:00,74.8,66.1,30.19,North,0,2.9,4.2,70,0.00,,,0.00,JAVA,2013-04-08 16:16:00,
2013-04-08 12:21:00,74.8,65.8,30.19,NNE,22,2.9,4.2,70,0.00,,,0.00,JAVA,2013-04-08 16:21:00,
2013-04-08 12:27:00,74.6,65.6,30.18,East,90,3.2,4.9,71,0.00,,,0.00,JAVA,2013-04-08 16:27:00,
2013-04-08 12:32:00,75.2,65.5,30.19,North,0,2.8,4.9,71,0.00,,,0.00,JAVA,2013-04-08 16:32:00,
2013-04-08 12:38:00,75.5,65.4,30.19,North,0,2.7,3.7,71,0.00,,,0.00,JAVA,2013-04-08 16:38:00,
2013-04-08 12:45:00,76.0,65.3,30.19,NE,45,2.4,3.7,71,0.00,,,0.00,JAVA,2013-04-08 16:45:00,
2013-04-08 12:50:00,76.1,65.3,30.19,NE,45,2.5,4.1,71,0.00,,,0.00,JAVA,2013-04-08 16:50:00,
2013-04-08 12:56:00,76.4,65.2,30.19,NNE,22,2.7,4.1,71,0.00,,,0.00,JAVA,2013-04-08 16:56:00,
2013-04-08 13:01:00,76.8,65.3,30.18,North,0,2.4,4.1,71,0.00,,,0.00,JAVA,2013-04-08 17:01:00,
2013-04-08 13:07:00,76.9,65.3,30.18,NE,45,2.3,3.7,71,0.00,,,0.00,JAVA,2013-04-08 17:07:00,
2013-04-08 13:12:00,76.4,65.4,30.19,North,0,2.6,4.6,71,0.00,,,0.00,JAVA,2013-04-08 17:12:00,
2013-04-08 13:18:00,75.9,65.5,30.18,NNE,22,3.0,4.6,71,0.00,,,0.00,JAVA,2013-04-08 17:18:00,
2013-04-08 13:23:00,76.0,65.5,30.18,NE,45,2.8,4.5,71,0.00,,,0.00,JAVA,2013-04-08 17:23:00,
2013-04-08 13:29:00,76.7,65.5,30.18,NNE,22,2.5,4.0,71,0.00,,,0.00,JAVA,2013-04-08 17:29:00,
2013-04-08 13:34:00,77.1,65.6,30.17,NE,45,2.3,3.6,71,0.00,,,0.00,JAVA,2013-04-08 17:34:00,
2013-04-08 13:40:00,77.4,65.8,30.17,North,0,2.1,3.6,70,0.00,,,0.00,JAVA,2013-04-08 17:40:00,
2013-04-08 13:45:00,77.3,65.9,30.17,North,0,2.1,3.2,70,0.00,,,0.00,JAVA,2013-04-08 17:45:00,
2013-04-08 13:51:00,77.7,66.0,30.17,NW,315,2.1,3.2,70,0.00,,,0.00,JAVA,2013-04-08 17:51:00,
2013-04-08 13:56:00,77.9,66.1,30.17,WSW,247,2.0,3.0,70,0.00,,,0.00,JAVA,2013-04-08 17:56:00,
2013-04-08 14:02:00,78.5,66.3,30.16,WNW,292,2.1,3.0,69,0.00,,,0.00,JAVA,2013-04-08 18:02:00,
2013-04-08 14:07:00,78.8,66.5,30.16,NNE,22,2.0,3.0,69,0.00,,,0.00,JAVA,2013-04-08 18:07:00,
2013-04-08 14:13:00,78.8,66.6,30.16,NE,45,2.1,3.1,68,0.00,,,0.00,JAVA,2013-04-08 18:13:00,
2013-04-08 14:19:00,78.9,66.8,30.16,East,90,2.1,3.1,68,0.00,,,0.00,JAVA,2013-04-08 18:19:00,
2013-04-08 14:24:00,79.0,66.9,30.15,NNE,22,2.0,2.9,67,0.00,,,0.00,JAVA,2013-04-08 18:24:00,
2013-04-08 14:30:00,78.9,67.0,30.15,SE,135,2.2,3.6,67,0.00,,,0.00,JAVA,2013-04-08 18:30:00,
2013-04-08 14:35:00,78.8,67.0,30.15,ESE,112,2.3,3.6,66,0.00,,,0.00,JAVA,2013-04-08 18:35:00,
2013-04-08 14:40:00,78.9,67.0,30.15,NE,45,2.1,3.6,66,0.00,,,0.00,JAVA,2013-04-08 18:40:00,
2013-04-08 14:46:00,79.3,67.0,30.15,North,0,2.2,3.6,65,0.00,,,0.00,JAVA,2013-04-08 18:46:00,
2013-04-08 14:51:00,79.5,67.0,30.15,East,90,2.2,2.8,64,0.00,,,0.00,JAVA,2013-04-08 18:51:00,
2013-04-08 14:57:00,79.4,67.0,30.15,SW,225,2.6,4.7,64,0.00,,,0.00,JAVA,2013-04-08 18:57:00,
2013-04-08 15:03:00,79.1,67.0,30.14,East,90,2.8,5.2,63,0.00,,,0.00,JAVA,2013-04-08 19:03:00,
2013-04-08 15:09:00,78.9,66.9,30.14,ESE,112,3.0,5.2,62,0.00,,,0.00,JAVA,2013-04-08 19:09:00,
2013-04-08 15:15:00,78.7,66.9,30.14,SE,135,3.0,4.4,62,0.00,,,0.00,JAVA,2013-04-08 19:15:00,
2013-04-08 15:20:00,78.5,66.8,30.14,ESE,112,3.6,4.9,61,0.00,,,0.00,JAVA,2013-04-08 19:20:00,
2013-04-08 15:27:00,78.6,66.6,30.14,SE,135,3.5,5.0,61,0.00,,,0.00,JAVA,2013-04-08 19:27:00,
2013-04-08 15:32:00,77.8,66.5,30.14,ESE,112,3.3,5.0,61,0.00,,,0.00,JAVA,2013-04-08 19:32:00,
2013-04-08 15:38:00,77.8,66.3,30.14,ENE,67,3.3,4.9,61,0.00,,,0.00,JAVA,2013-04-08 19:38:00,
2013-04-08 15:45:00,77.4,66.0,30.14,SE,135,3.6,5.1,60,0.00,,,0.00,JAVA,2013-04-08 19:45:00,
2013-04-08 15:50:00,77.6,65.8,30.14,East,90,3.2,5.1,60,0.00,,,0.00,JAVA,2013-04-08 19:50:00,
2013-04-08 15:56:00,77.9,65.6,30.13,SE,135,2.8,4.0,60,0.00,,,0.00,JAVA,2013-04-08 19:56:00,
2013-04-08 16:01:00,77.8,65.4,30.13,ESE,112,2.8,4.1,60,0.00,,,0.00,JAVA,2013-04-08 20:01:00,
2013-04-08 16:07:00,77.4,65.1,30.13,SSW,202,2.6,4.1,60,0.00,,,0.00,JAVA,2013-04-08 20:07:00,
2013-04-08 16:12:00,77.4,64.9,30.13,ESE,112,2.7,3.5,60,0.00,,,0.00,JAVA,2013-04-08 20:12:00,
2013-04-08 16:18:00,77.6,64.7,30.13,SE,135,2.8,3.6,60,0.00,,,0.00,JAVA,2013-04-08 20:18:00,
2013-04-08 16:23:00,77.7,64.4,30.13,East,90,2.7,3.6,60,0.00,,,0.00,JAVA,2013-04-08 20:23:00,
2013-04-08 16:29:00,77.7,64.3,30.13,East,90,2.8,4.4,60,0.00,,,0.00,JAVA,2013-04-08 20:29:00,
2013-04-08 16:34:00,77.7,64.1,30.13,SE,135,3.0,4.4,60,0.00,,,0.00,JAVA,2013-04-08 20:34:00,
2013-04-08 16:40:00,77.1,63.9,30.13,East,90,3.3,4.7,60,0.00,,,0.00,JAVA,2013-04-08 20:40:00,
2013-04-08 16:45:00,76.6,63.7,30.13,SE,135,3.6,4.7,60,0.00,,,0.00,JAVA,2013-04-08 20:45:00,
2013-04-08 16:51:00,76.2,63.5,30.12,ESE,112,3.6,4.7,61,0.00,,,0.00,JAVA,2013-04-08 20:51:00,
2013-04-08 16:56:00,76.1,63.3,30.13,NE,45,3.6,5.2,61,0.00,,,0.00,JAVA,2013-04-08 20:56:00,
2013-04-08 17:03:00,75.9,63.1,30.13,ESE,112,3.6,5.2,61,0.00,,,0.00,JAVA,2013-04-08 21:03:00,
2013-04-08 17:09:00,76.0,62.9,30.13,East,90,3.2,4.4,62,0.00,,,0.00,JAVA,2013-04-08 21:09:00,
2013-04-08 17:14:00,76.0,62.8,30.13,SE,135,3.2,4.3,62,0.00,,,0.00,JAVA,2013-04-08 21:14:00,
2013-04-08 17:20:00,75.8,62.7,30.13,ESE,112,3.9,5.6,62,0.00,,,0.00,JAVA,2013-04-08 21:20:00,
2013-04-08 17:25:00,75.2,62.7,30.13,NE,45,4.3,5.6,62,0.00,,,0.00,JAVA,2013-04-08 21:25:00,
2013-04-08 17:32:00,74.8,62.6,30.13,SE,135,4.0,5.1,63,0.00,,,0.00,JAVA,2013-04-08 21:32:00,
2013-04-08 17:37:00,74.5,62.5,30.13,ESE,112,4.1,5.1,64,0.00,,,0.00,JAVA,2013-04-08 21:37:00,
2013-04-08 17:43:00,74.0,62.4,30.13,NNW,337,4.1,5.0,64,0.00,,,0.00,JAVA,2013-04-08 21:43:00,
2013-04-08 17:50:00,74.1,62.3,30.14,NE,45,3.8,4.8,65,0.00,,,0.00,JAVA,2013-04-08 21:50:00,
2013-04-08 17:55:00,74.4,62.2,30.13,SE,135,3.5,4.7,65,0.00,,,0.00,JAVA,2013-04-08 21:55:00,
2013-04-08 18:01:00,74.4,62.2,30.14,East,90,3.2,3.9,66,0.00,,,0.00,JAVA,2013-04-08 22:01:00,
2013-04-08 18:06:00,74.2,62.2,30.14,NE,45,2.8,3.8,66,0.00,,,0.00,JAVA,2013-04-08 22:06:00,
2013-04-08 18:12:00,74.1,62.2,30.14,NE,45,2.1,3.6,67,0.00,,,0.00,JAVA,2013-04-08 22:12:00,
2013-04-08 18:17:00,74.1,62.2,30.13,East,90,1.3,2.8,68,0.00,,,0.00,JAVA,2013-04-08 22:17:00,
2013-04-08 18:23:00,74.1,62.2,30.14,East,90,1.2,2.0,68,0.00,,,0.00,JAVA,2013-04-08 22:23:00,
2013-04-08 18:28:00,74.1,62.2,30.14,East,90,1.6,2.3,69,0.00,,,0.00,JAVA,2013-04-08 22:28:00,
2013-04-08 18:34:00,73.7,62.3,30.14,ESE,112,1.9,2.3,69,0.00,,,0.00,JAVA,2013-04-08 22:34:00,
2013-04-08 18:39:00,73.6,62.3,30.14,East,90,2.1,3.1,69,0.00,,,0.00,JAVA,2013-04-08 22:39:00,
2013-04-08 18:45:00,73.5,62.4,30.14,ESE,112,2.0,3.1,70,0.00,,,0.00,JAVA,2013-04-08 22:45:00,
2013-04-08 18:50:00,73.3,62.5,30.14,ESE,112,1.6,2.8,70,0.00,,,0.00,JAVA,2013-04-08 22:50:00,
2013-04-08 18:57:00,73.3,62.5,30.15,SE,135,1.5,2.5,71,0.00,,,0.00,JAVA,2013-04-08 22:57:00,
2013-04-08 19:02:00,73.2,62.6,30.14,SE,135,1.5,2.3,71,0.00,,,0.00,JAVA,2013-04-08 23:02:00,
2013-04-08 19:08:00,73.1,62.7,30.14,NE,45,1.6,2.3,72,0.00,,,0.00,JAVA,2013-04-08 23:08:00,
2013-04-08 19:13:00,72.9,62.7,30.14,NE,45,1.4,2.0,72,0.00,,,0.00,JAVA,2013-04-08 23:13:00,
2013-04-08 19:20:00,72.7,62.8,30.14,ESE,112,1.6,2.4,72,0.00,,,0.00,JAVA,2013-04-08 23:20:00,
2013-04-08 19:25:00,72.6,62.9,30.14,SE,135,1.4,2.4,72,0.00,,,0.00,JAVA,2013-04-08 23:25:00,
2013-04-08 19:31:00,72.6,63.0,30.14,NE,45,1.5,2.1,72,0.00,,,0.00,JAVA,2013-04-08 23:31:00,
2013-04-08 19:36:00,72.4,63.1,30.15,East,90,1.5,2.1,72,0.00,,,0.00,JAVA,2013-04-08 23:36:00,
2013-04-08 19:42:00,72.3,63.2,30.15,SE,135,1.5,2.3,72,0.00,,,0.00,JAVA,2013-04-08 23:42:00,
2013-04-08 19:47:00,72.3,63.2,30.15,East,90,2.0,2.9,72,0.00,,,0.00,JAVA,2013-04-08 23:47:00,
2013-04-08 19:53:00,72.3,63.2,30.15,ESE,112,2.2,2.9,72,0.00,,,0.00,JAVA,2013-04-08 23:53:00,
2013-04-08 19:58:00,72.2,63.2,30.15,NNE,22,2.2,2.9,72,0.00,,,0.00,JAVA,2013-04-08 23:58:00,
2013-04-08 20:04:00,72.1,63.2,30.15,ESE,112,2.1,2.8,72,0.00,,,0.00,JAVA,2013-04-09 00:04:00,
2013-04-08 20:09:00,71.9,63.2,30.15,ESE,112,1.9,2.8,73,0.00,,,0.00,JAVA,2013-04-09 00:09:00,
2013-04-08 20:15:00,71.9,63.2,30.15,East,90,1.8,2.7,73,0.00,,,0.00,JAVA,2013-04-09 00:15:00,
2013-04-08 20:20:00,71.8,63.2,30.15,NE,45,2.2,3.1,73,0.00,,,0.00,JAVA,2013-04-09 00:20:00,
2013-04-08 20:26:00,71.7,63.2,30.16,NW,315,2.2,3.1,74,0.00,,,0.00,JAVA,2013-04-09 00:26:00,
2013-04-08 20:31:00,71.7,63.2,30.15,East,90,2.0,2.8,74,0.00,,,0.00,JAVA,2013-04-09 00:31:00,
2013-04-08 20:37:00,71.6,63.2,30.15,ENE,67,2.2,3.7,74,0.00,,,0.00,JAVA,2013-04-09 00:37:00,
2013-04-08 20:42:00,71.5,63.2,30.16,SE,135,2.3,3.7,74,0.00,,,0.00,JAVA,2013-04-09 00:42:00,
2013-04-08 20:48:00,71.5,63.2,30.15,SE,135,2.3,3.5,75,0.00,,,0.00,JAVA,2013-04-09 00:48:00,
2013-04-08 20:53:00,71.4,63.2,30.16,East,90,2.1,3.5,75,0.00,,,0.00,JAVA,2013-04-09 00:53:00,
2013-04-08 20:59:00,71.4,63.1,30.15,ESE,112,2.0,2.7,75,0.00,,,0.00,JAVA,2013-04-09 00:59:00,
2013-04-08 21:04:00,71.3,63.1,30.16,East,90,2.0,2.7,76,0.00,,,0.00,JAVA,2013-04-09 01:04:00,
2013-04-08 21:10:00,71.0,63.1,30.16,ESE,112,1.9,2.7,76,0.00,,,0.00,JAVA,2013-04-09 01:10:00,
2013-04-08 21:15:00,70.9,63.1,30.16,ESE,112,1.8,2.4,77,0.00,,,0.00,JAVA,2013-04-09 01:15:00,
2013-04-08 21:21:00,70.8,63.1,30.15,East,90,1.7,2.2,77,0.00,,,0.00,JAVA,2013-04-09 01:21:00,
2013-04-08 21:26:00,70.8,63.2,30.16,SE,135,1.7,2.4,77,0.00,,,0.00,JAVA,2013-04-09 01:26:00,
2013-04-08 21:32:00,70.7,63.2,30.17,SE,135,1.7,2.4,78,0.00,,,0.00,JAVA,2013-04-09 01:32:00,
2013-04-08 21:37:00,70.7,63.2,30.16,NNE,22,1.8,2.3,78,0.00,,,0.00,JAVA,2013-04-09 01:37:00,
2013-04-08 21:42:00,70.7,63.3,30.16,East,90,1.5,2.2,79,0.00,,,0.00,JAVA,2013-04-09 01:42:00,
2013-04-08 21:48:00,70.6,63.3,30.16,East,90,1.4,2.2,79,0.00,,,0.00,JAVA,2013-04-09 01:48:00,
2013-04-08 21:55:00,70.6,63.4,30.17,East,90,1.4,2.2,79,0.00,,,0.00,JAVA,2013-04-09 01:55:00,
2013-04-08 22:00:00,70.6,63.4,30.17,East,90,1.0,2.2,80,0.00,,,0.00,JAVA,2013-04-09 02:00:00,
2013-04-08 22:06:00,70.5,63.5,30.17,East,90,1.1,1.6,80,0.00,,,0.00,JAVA,2013-04-09 02:06:00,
2013-04-08 22:11:00,70.5,63.6,30.17,East,90,1.2,1.7,81,0.00,,,0.00,JAVA,2013-04-09 02:11:00,
2013-04-08 22:17:00,70.5,63.6,30.17,ESE,112,1.2,1.7,81,0.00,,,0.00,JAVA,2013-04-09 02:17:00,
2013-04-08 22:22:00,70.4,63.7,30.17,SE,135,1.3,1.7,82,0.00,,,0.00,JAVA,2013-04-09 02:22:00,
2013-04-08 22:27:00,70.4,63.8,30.17,NNE,22,1.3,1.9,82,0.00,,,0.00,JAVA,2013-04-09 02:27:00,
2013-04-08 22:34:00,70.4,63.9,30.17,SSE,157,1.1,1.7,82,0.00,,,0.00,JAVA,2013-04-09 02:34:00,
2013-04-08 22:40:00,70.3,64.0,30.17,East,90,0.7,1.3,83,0.00,,,0.00,JAVA,2013-04-09 02:40:00,
2013-04-08 22:45:00,70.1,64.0,30.17,ENE,67,0.6,1.5,83,0.00,,,0.00,JAVA,2013-04-09 02:45:00,
2013-04-08 22:51:00,70.0,64.1,30.17,ESE,112,0.6,1.5,83,0.00,,,0.00,JAVA,2013-04-09 02:51:00,
2013-04-08 22:56:00,69.9,64.2,30.17,East,90,0.5,0.7,84,0.00,,,0.00,JAVA,2013-04-09 02:56:00,
2013-04-08 23:01:00,69.8,64.3,30.17,East,90,0.5,1.2,84,0.00,,,0.00,JAVA,2013-04-09 03:01:00,
2013-04-08 23:07:00,69.7,64.4,30.17,ENE,67,0.4,1.2,84,0.00,,,0.00,JAVA,2013-04-09 03:07:00,
2013-04-08 23:12:00,69.6,64.4,30.18,East,90,0.2,0.6,85,0.00,,,0.00,JAVA,2013-04-09 03:12:00,
2013-04-08 23:18:00,69.4,64.5,30.18,East,90,0.1,0.6,85,0.00,,,0.00,JAVA,2013-04-09 03:18:00,
2013-04-08 23:25:00,69.2,64.6,30.18,East,90,0.2,0.4,85,0.00,,,0.00,JAVA,2013-04-09 03:25:00,
2013-04-08 23:30:00,69.1,64.6,30.18,NE,45,0.1,0.4,86,0.00,,,0.00,JAVA,2013-04-09 03:30:00,
2013-04-08 23:36:00,68.9,64.7,30.18,East,90,0.0,0.1,86,0.00,,,0.00,JAVA,2013-04-09 03:36:00,
2013-04-08 23:41:00,68.8,64.7,30.18,East,90,0.0,0.0,86,0.00,,,0.00,JAVA,2013-04-09 03:41:00,
2013-04-08 23:48:00,68.8,64.7,30.18,ESE,112,0.0,0.1,86,0.00,,,0.00,JAVA,2013-04-09 03:48:00,
2013-04-08 23:53:00,68.4,64.7,30.17,East,90,0.0,0.1,86,0.00,,,0.00,JAVA,2013-04-09 03:53:00,
2013-04-08 23:59:00,68.0,64.7,30.17,East,90,0.0,0.0,86,0.00,,,0.00,JAVA,2013-04-09 03:59:00,